Current | Forecast
Updated: 8:30 AM CEST on April 27, 2018
Observed at Valladolid Airport, Spain
Temperature 9°C
Humidity 87%
Dew Point 7°C
Wind WSW at 11 km/h
Pressure 1014 hPa (Steady)
Conditions Clear
Visibility -
UV N/A
Clouds
Yesterday's Maximum 21°C
Yesterday's Minimum 13°C approx.
Yesterday's Heating Degree Days 2 approx.
Sunrise7:21 AM CEST
Sunset9:13 PM CEST
Moon Rise6:34 PM CEST
Moon Set6:21 AM CEST
Moon PhaseMoon Phase
Waxing Gibbous
Raw METARMETAR LEVD 270630Z 25006KT CAVOK 09/07 Q1014


Monday
. High: 69° F.
Tuesday
. High: 71° F.
Wednesday
. High: 60° F.
Thursday
. High: 64° F.
Friday
. High: 75° F.
Saturday
. High: 73° F.
Sunday
. High: 71° F.
Monday
. High: 80° F.

Units: English | Metric

Find the Weather for any City, State or Zipcode, or Country:

U.S. State List | Severe Weather | Tropical Storms | Ski Conditions
United States | Canada | Central America | South America | Asia | Europe | Australia | Africa | Islands

Weather Underground

© Copyright 2018
The Weather Company, LLC